createdAt,value
2022-08-28T00:01:23.125Z,655.70
2022-08-28T00:03:49.598Z,659.90
2022-08-28T00:06:16.057Z,660.00
2022-08-28T00:08:42.494Z,650.40
2022-08-28T00:11:08.956Z,649.17
2022-08-28T00:13:35.407Z,647.80
2022-08-28T00:16:01.853Z,648.53
2022-08-28T00:18:28.390Z,654.50
2022-08-28T00:20:54.850Z,660.73
2022-08-28T00:23:21.293Z,652.90
2022-08-28T00:25:47.749Z,657.70
2022-08-28T00:28:23.755Z,660.83
2022-08-28T00:30:50.930Z,656.90
2022-08-28T00:33:17.458Z,658.80
2022-08-28T00:35:43.903Z,653.37
2022-08-28T00:38:10.351Z,656.90
2022-08-28T00:40:36.929Z,648.43
2022-08-28T00:43:03.408Z,651.13
2022-08-28T00:45:29.874Z,660.90
2022-08-28T00:47:56.306Z,660.00
2022-08-28T00:50:22.745Z,664.57
2022-08-28T00:52:49.183Z,648.53
2022-08-28T00:55:15.632Z,648.47
2022-08-28T00:57:42.092Z,651.50
2022-08-28T01:00:08.536Z,649.17
2022-08-28T01:02:35.012Z,659.10
2022-08-28T01:05:01.512Z,648.47
2022-08-28T01:07:27.943Z,656.10
2022-08-28T01:09:54.422Z,658.13
2022-08-28T01:12:20.851Z,651.67
2022-08-28T01:14:47.287Z,643.90
2022-08-28T01:17:13.732Z,656.30
2022-08-28T01:19:40.163Z,652.37
2022-08-28T01:22:06.641Z,652.73
2022-08-28T01:24:33.079Z,652.70
2022-08-28T01:26:59.537Z,656.37
2022-08-28T01:29:25.965Z,648.23
2022-08-28T01:31:52.437Z,643.87
2022-08-28T01:34:18.875Z,656.77
2022-08-28T01:36:45.312Z,656.63
2022-08-28T01:39:11.757Z,648.43
2022-08-28T01:41:38.218Z,651.07
2022-08-28T01:44:04.652Z,656.93
2022-08-28T01:46:31.139Z,639.07
2022-08-28T01:48:57.640Z,658.20
2022-08-28T01:51:24.785Z,655.97
2022-08-28T01:53:51.305Z,658.60
2022-08-28T01:56:17.774Z,663.40
2022-08-28T01:58:44.225Z,656.57
2022-08-28T02:01:10.758Z,669.90
2022-08-28T02:03:37.281Z,657.73
2022-08-28T02:06:03.783Z,651.07
2022-08-28T02:08:30.207Z,665.63
2022-08-28T02:10:56.638Z,651.10
2022-08-28T02:13:23.064Z,660.40
2022-08-28T02:15:52.253Z,653.33
2022-08-28T02:18:18.735Z,650.27
2022-08-28T02:20:45.185Z,655.90
2022-08-28T02:23:11.618Z,659.97
2022-08-28T02:25:38.079Z,657.07
2022-08-28T02:28:04.506Z,661.13
2022-08-28T02:30:30.947Z,658.20
2022-08-28T02:32:57.390Z,662.17
2022-08-28T02:35:23.819Z,660.20
2022-08-28T02:37:50.304Z,645.40
2022-08-28T02:40:16.790Z,656.67
2022-08-28T02:42:43.339Z,655.30
2022-08-28T02:45:09.795Z,656.77
2022-08-28T02:47:36.238Z,648.13
2022-08-28T02:50:02.667Z,654.83
2022-08-28T02:52:29.127Z,646.63
2022-08-28T02:54:55.565Z,648.70
2022-08-28T02:57:22.028Z,662.13
2022-08-28T02:59:48.458Z,654.40
2022-08-28T03:02:14.956Z,666.30
2022-08-28T03:04:41.449Z,655.47
2022-08-28T03:07:07.900Z,662.80
2022-08-28T03:09:34.340Z,666.60
2022-08-28T03:12:00.800Z,673.63
2022-08-28T03:14:27.716Z,665.23
2022-08-28T03:16:54.237Z,667.20
2022-08-28T03:19:20.766Z,679.17
2022-08-28T03:21:47.212Z,679.87
2022-08-28T03:24:15.226Z,680.00
2022-08-28T03:26:42.232Z,689.53
2022-08-28T03:29:08.670Z,692.97
2022-08-28T03:31:35.124Z,696.90
2022-08-28T03:34:01.583Z,699.07
2022-08-28T03:36:28.168Z,712.20
2022-08-28T03:38:54.601Z,731.67
2022-08-28T03:41:21.063Z,740.83
2022-08-28T03:43:47.494Z,758.70
2022-08-28T03:46:13.970Z,768.57
2022-08-28T03:48:42.192Z,764.43
2022-08-28T03:51:11.310Z,759.40
2022-08-28T03:53:38.849Z,766.17
2022-08-28T03:56:05.283Z,753.87
2022-08-28T03:58:31.714Z,749.10
2022-08-28T04:00:58.185Z,749.40
2022-08-28T04:03:24.762Z,754.87
2022-08-28T04:05:51.219Z,708.33
2022-08-28T04:08:17.658Z,698.83
2022-08-28T04:10:44.138Z,704.70
2022-08-28T04:13:11.792Z,693.20
2022-08-28T04:15:38.245Z,694.47
2022-08-28T04:18:04.684Z,689.47
2022-08-28T04:20:31.109Z,682.20
2022-08-28T04:22:57.567Z,683.70
2022-08-28T04:25:26.881Z,686.03
2022-08-28T04:27:53.338Z,690.13
2022-08-28T04:30:19.776Z,685.40
2022-08-28T04:32:46.212Z,685.20
2022-08-28T04:35:12.650Z,677.97
2022-08-28T04:37:39.100Z,677.93
2022-08-28T04:40:05.567Z,683.73
2022-08-28T04:42:32.056Z,669.37
2022-08-28T04:44:58.483Z,675.10
2022-08-28T04:47:24.929Z,676.97
2022-08-28T04:49:51.362Z,676.17
2022-08-28T04:52:17.852Z,684.80
2022-08-28T04:54:44.315Z,684.60
2022-08-28T04:57:10.777Z,679.13
2022-08-28T04:59:37.200Z,680.03
2022-08-28T05:02:03.677Z,667.70
2022-08-28T05:04:30.186Z,676.90
2022-08-28T05:06:56.643Z,659.97
2022-08-28T05:09:23.071Z,670.63
2022-08-28T05:11:49.525Z,663.90
2022-08-28T05:14:16.466Z,669.17
2022-08-28T05:16:43.119Z,655.10
2022-08-28T05:19:09.666Z,662.90
2022-08-28T05:21:36.131Z,656.50
2022-08-28T05:24:02.568Z,648.50
2022-08-28T05:26:29.903Z,648.90
2022-08-28T05:28:56.616Z,641.47
2022-08-28T05:31:23.134Z,643.90
2022-08-28T05:33:49.644Z,639.33
2022-08-28T05:36:16.114Z,640.43
2022-08-28T05:38:42.564Z,634.30
2022-08-28T05:41:09.071Z,636.77
2022-08-28T05:43:35.511Z,638.20
2022-08-28T05:46:02.013Z,635.73
2022-08-28T05:48:30.380Z,625.60
2022-08-28T05:50:59.429Z,628.23
2022-08-28T05:53:25.863Z,630.93
2022-08-28T05:55:52.365Z,641.77
2022-08-28T05:58:18.812Z,641.43
2022-08-28T06:00:45.256Z,630.57
2022-08-28T06:03:11.685Z,630.60
2022-08-28T06:05:38.167Z,631.53
2022-08-28T06:08:04.604Z,630.63
2022-08-28T06:10:31.036Z,631.97
2022-08-28T06:12:57.754Z,632.53
2022-08-28T06:15:24.180Z,633.93
2022-08-28T06:17:50.606Z,636.93
2022-08-28T06:20:18.191Z,641.03
2022-08-28T06:22:44.648Z,641.83
2022-08-28T06:25:11.076Z,643.80
2022-08-28T06:27:37.549Z,643.40
2022-08-28T06:30:03.984Z,639.67
2022-08-28T06:32:30.534Z,639.43
2022-08-28T06:34:57.108Z,653.53
2022-08-28T06:37:23.622Z,644.30
2022-08-28T06:39:50.083Z,646.20
2022-08-28T06:42:16.544Z,642.03
2022-08-28T06:44:42.981Z,645.00
2022-08-28T06:47:09.424Z,644.60
2022-08-28T06:49:35.855Z,648.07
2022-08-28T06:52:02.501Z,652.33
2022-08-28T06:54:28.957Z,650.00
2022-08-28T06:56:55.516Z,648.77
2022-08-28T06:59:21.981Z,648.57
2022-08-28T07:01:48.534Z,656.17
2022-08-28T07:04:15.106Z,643.17
2022-08-28T07:06:41.592Z,646.73
2022-08-28T07:09:08.084Z,645.07
2022-08-28T07:11:34.539Z,645.60
2022-08-28T07:14:00.990Z,636.87
2022-08-28T07:16:27.525Z,640.77
2022-08-28T07:18:54.050Z,647.40
2022-08-28T07:21:20.502Z,647.47
2022-08-28T07:23:46.929Z,637.00
2022-08-28T07:26:13.367Z,650.23
2022-08-28T07:28:39.861Z,656.50
2022-08-28T07:31:06.374Z,649.77
2022-08-28T07:33:32.830Z,648.80
2022-08-28T07:35:59.271Z,648.63
2022-08-28T07:38:25.755Z,666.90
2022-08-28T07:40:52.190Z,648.67
2022-08-28T07:43:18.618Z,646.67
2022-08-28T07:45:45.087Z,654.00
2022-08-28T07:48:11.912Z,654.67
2022-08-28T07:50:38.417Z,655.77
2022-08-28T07:53:07.948Z,652.73
2022-08-28T07:55:34.442Z,647.07
2022-08-28T07:58:00.958Z,653.87
2022-08-28T08:00:27.385Z,643.43
2022-08-28T08:02:53.835Z,637.40
2022-08-28T08:05:20.327Z,629.90
2022-08-28T08:07:46.863Z,636.93
2022-08-28T08:10:13.321Z,635.47
2022-08-28T08:12:40.163Z,623.80
2022-08-28T08:15:07.200Z,631.60
2022-08-28T08:17:33.647Z,623.70
2022-08-28T08:20:00.128Z,630.97
2022-08-28T08:22:26.602Z,622.70
2022-08-28T08:24:53.056Z,635.23
2022-08-28T08:27:19.514Z,624.23
2022-08-28T08:29:46.032Z,632.97
2022-08-28T08:32:12.494Z,636.20
2022-08-28T08:34:38.962Z,630.97
2022-08-28T08:37:05.503Z,632.63
2022-08-28T08:39:31.986Z,633.03
2022-08-28T08:41:58.907Z,630.23
2022-08-28T08:44:33.282Z,630.47
2022-08-28T08:47:00.694Z,627.57
2022-08-28T08:49:27.137Z,605.53
2022-08-28T08:51:53.581Z,635.27
2022-08-28T08:54:20.014Z,626.53
2022-08-28T08:56:46.469Z,630.33
2022-08-28T08:59:12.915Z,631.13
2022-08-28T09:01:40.054Z,633.27
2022-08-28T09:04:06.558Z,634.90
2022-08-28T09:06:33.013Z,626.33
2022-08-28T09:08:59.446Z,627.93
2022-08-28T09:11:25.899Z,612.10
2022-08-28T09:13:52.421Z,636.03
2022-08-28T09:16:18.947Z,621.47
2022-08-28T09:18:45.462Z,622.57
2022-08-28T09:21:11.939Z,625.50
2022-08-28T09:23:38.367Z,624.27
2022-08-28T09:26:04.801Z,635.47
2022-08-28T09:28:32.075Z,636.43
2022-08-28T09:30:58.576Z,644.83
2022-08-28T09:33:25.082Z,643.27
2022-08-28T09:35:51.542Z,632.53
2022-08-28T09:38:17.985Z,637.47
2022-08-28T09:40:44.427Z,632.33
2022-08-28T09:43:11.365Z,635.23
2022-08-28T09:45:37.795Z,628.83
2022-08-28T09:48:04.246Z,625.20
2022-08-28T09:50:30.666Z,627.37
2022-08-28T09:52:57.113Z,629.03
2022-08-28T09:55:23.565Z,620.50
2022-08-28T09:57:50.035Z,628.20
2022-08-28T10:00:16.483Z,640.80
2022-08-28T10:02:42.931Z,629.10
2022-08-28T10:05:09.369Z,628.90
2022-08-28T10:07:35.827Z,649.13
2022-08-28T10:10:02.271Z,631.63
2022-08-28T10:12:32.931Z,630.17
2022-08-28T10:14:59.384Z,635.77
2022-08-28T10:17:25.848Z,662.37
2022-08-28T10:19:52.274Z,707.53
2022-08-28T10:22:18.708Z,706.50
2022-08-28T10:24:45.157Z,744.77
2022-08-28T10:27:11.992Z,680.20
2022-08-28T10:29:38.455Z,755.77
2022-08-28T10:32:04.935Z,720.37
2022-08-28T10:34:31.389Z,717.97
2022-08-28T10:36:57.883Z,615.97
2022-08-28T10:39:24.326Z,715.40
2022-08-28T10:41:50.800Z,712.30
2022-08-28T10:44:17.315Z,684.27
2022-08-28T10:46:43.844Z,670.13
2022-08-28T10:49:10.491Z,662.70
2022-08-28T10:51:40.494Z,647.80
2022-08-28T10:54:10.167Z,655.43
2022-08-28T10:56:36.617Z,654.67
2022-08-28T10:59:03.134Z,653.03
2022-08-28T11:04:25.130Z,650.40
2022-08-28T11:06:52.067Z,660.97
2022-08-28T11:09:18.523Z,658.73
2022-08-28T11:11:45.146Z,651.10
2022-08-28T11:14:11.628Z,658.77
2022-08-28T11:16:38.339Z,643.67
2022-08-28T11:19:06.956Z,646.00
2022-08-28T11:21:33.482Z,658.73
2022-08-28T11:23:59.973Z,653.90
2022-08-28T11:26:26.537Z,648.63
2022-08-28T11:28:53.456Z,648.53
2022-08-28T11:31:28.946Z,643.40
2022-08-28T11:33:56.033Z,647.93
2022-08-28T11:36:22.504Z,651.33
2022-08-28T11:38:48.974Z,655.37
2022-08-28T11:41:15.438Z,645.53
2022-08-28T11:43:41.895Z,649.77
2022-08-28T11:46:08.406Z,652.07
2022-08-28T11:48:34.878Z,639.57
2022-08-28T11:51:01.315Z,640.87
2022-08-28T11:53:27.776Z,647.53
2022-08-28T11:55:54.217Z,644.30
2022-08-28T11:58:20.845Z,647.57
2022-08-28T12:00:47.319Z,637.30
2022-08-28T12:03:13.947Z,642.03
2022-08-28T12:05:40.619Z,642.07
2022-08-28T12:08:07.072Z,641.37
2022-08-28T12:10:33.510Z,638.97
2022-08-28T12:13:00.004Z,641.80
2022-08-28T12:15:26.446Z,651.90
2022-08-28T12:17:52.926Z,651.97
2022-08-28T12:20:19.377Z,657.47
2022-08-28T12:22:45.805Z,642.83
2022-08-28T12:25:12.237Z,636.93
2022-08-28T12:27:38.717Z,640.70
2022-08-28T12:30:05.148Z,636.40
2022-08-28T12:32:31.624Z,644.77
2022-08-28T12:34:58.059Z,645.47
2022-08-28T12:37:24.515Z,637.10
2022-08-28T12:39:50.948Z,641.73
2022-08-28T12:42:17.400Z,636.97
2022-08-28T12:44:43.915Z,638.17
2022-08-28T12:47:10.377Z,640.77
2022-08-28T12:49:36.816Z,640.47
2022-08-28T12:52:03.263Z,646.67
2022-08-28T12:54:29.686Z,636.93
2022-08-28T12:56:56.196Z,633.60
2022-08-28T12:59:22.745Z,642.33
2022-08-28T13:01:54.160Z,625.27
2022-08-28T13:04:24.128Z,635.30
2022-08-28T13:06:50.701Z,635.73
2022-08-28T13:09:17.158Z,641.70
2022-08-28T13:11:43.636Z,633.60
2022-08-28T13:14:10.083Z,640.00
2022-08-28T13:16:36.633Z,632.83
2022-08-28T13:19:03.087Z,641.47
2022-08-28T13:21:33.688Z,640.67
2022-08-28T13:24:03.423Z,643.43
2022-08-28T13:26:29.891Z,635.63
2022-08-28T13:28:56.318Z,647.43
2022-08-28T13:31:24.994Z,640.90
2022-08-28T13:33:51.430Z,646.17
2022-08-28T13:36:17.865Z,641.27
2022-08-28T13:38:44.303Z,638.93
2022-08-28T13:41:10.805Z,624.47
2022-08-28T13:43:37.291Z,643.00
2022-08-28T13:46:03.781Z,650.13
2022-08-28T13:48:30.319Z,644.87
2022-08-28T13:50:56.757Z,646.40
2022-08-28T13:53:23.236Z,646.90
2022-08-28T13:55:49.673Z,644.00
2022-08-28T13:58:16.138Z,635.77
2022-08-28T14:00:42.594Z,654.17
2022-08-28T14:03:09.177Z,648.93
2022-08-28T14:05:35.615Z,646.10
2022-08-28T14:08:02.069Z,648.43
2022-08-28T14:10:28.567Z,647.07
2022-08-28T14:12:55.082Z,651.33
2022-08-28T14:15:21.524Z,636.83
2022-08-28T14:17:47.962Z,633.57
2022-08-28T14:20:14.402Z,636.60
2022-08-28T14:22:40.857Z,641.80
2022-08-28T14:25:07.305Z,635.10
2022-08-28T14:27:33.826Z,651.50
2022-08-28T14:30:00.262Z,644.50
2022-08-28T14:32:26.765Z,648.13
2022-08-28T14:34:53.280Z,649.93
2022-08-28T14:37:19.720Z,635.60
2022-08-28T14:39:46.155Z,646.60
2022-08-28T14:42:13.224Z,640.40
2022-08-28T14:44:39.858Z,642.67
2022-08-28T14:47:06.364Z,652.23
2022-08-28T14:49:32.809Z,642.83
2022-08-28T14:51:59.319Z,644.67
2022-08-28T14:54:25.789Z,647.63
2022-08-28T14:56:52.224Z,650.90
2022-08-28T14:59:23.776Z,654.30
2022-08-28T15:04:31.160Z,630.47
2022-08-28T15:06:57.605Z,645.13
2022-08-28T15:09:24.053Z,648.00
2022-08-28T15:11:50.509Z,639.30
2022-08-28T15:14:16.992Z,650.57
2022-08-28T15:16:43.476Z,653.10
2022-08-28T15:19:09.955Z,643.77
2022-08-28T15:21:36.398Z,638.97
2022-08-28T15:24:02.871Z,646.27
2022-08-28T15:26:29.288Z,650.77
2022-08-28T15:28:55.797Z,658.13
2022-08-28T15:31:22.281Z,652.90
2022-08-28T15:33:48.816Z,645.73
2022-08-28T15:36:15.263Z,643.80
2022-08-28T15:38:41.753Z,648.33
2022-08-28T15:41:08.202Z,656.47
2022-08-28T15:43:34.668Z,649.17
2022-08-28T15:46:01.190Z,658.07
2022-08-28T15:48:27.703Z,656.23
2022-08-28T15:50:54.144Z,658.20
2022-08-28T15:53:20.593Z,619.37
2022-08-28T15:55:47.053Z,649.53
2022-08-28T15:58:14.232Z,655.40
2022-08-28T16:00:40.974Z,645.07
2022-08-28T16:03:07.500Z,654.53
2022-08-28T16:05:33.921Z,654.43
2022-08-28T16:08:05.997Z,647.03
2022-08-28T16:10:32.435Z,927.83
2022-08-28T16:12:58.891Z,643.97
2022-08-28T16:15:25.325Z,654.83
2022-08-28T16:17:51.769Z,646.20
2022-08-28T16:20:18.233Z,645.60
2022-08-28T16:22:44.696Z,642.77
2022-08-28T16:25:11.119Z,656.97
2022-08-28T16:27:37.625Z,654.60
2022-08-28T16:30:07.426Z,654.40
2022-08-28T16:32:42.392Z,644.37
2022-08-28T16:35:20.513Z,649.20
2022-08-28T16:37:48.255Z,643.30
2022-08-28T16:40:14.896Z,643.10
2022-08-28T16:42:41.515Z,652.30
2022-08-28T16:45:08.975Z,649.90
2022-08-28T16:47:37.703Z,651.70
2022-08-28T16:50:04.130Z,649.90
2022-08-28T16:52:30.656Z,650.53
2022-08-28T16:54:57.090Z,653.37
2022-08-28T16:57:23.603Z,642.30
2022-08-28T16:59:52.924Z,651.37
2022-08-28T17:02:20.075Z,646.53
2022-08-28T17:04:46.799Z,653.20
2022-08-28T17:07:13.454Z,646.43
2022-08-28T17:09:39.909Z,644.50
2022-08-28T17:12:06.420Z,643.67
2022-08-28T17:14:32.879Z,654.63
2022-08-28T17:16:59.337Z,644.13
2022-08-28T17:19:25.812Z,642.10
2022-08-28T17:21:52.259Z,643.53
2022-08-28T17:24:18.743Z,646.00
2022-08-28T17:26:45.212Z,644.87
2022-08-28T17:29:11.688Z,655.17
2022-08-28T17:31:38.234Z,655.97
2022-08-28T17:34:04.890Z,654.80
2022-08-28T17:36:33.218Z,643.33
2022-08-28T17:39:00.711Z,639.83
2022-08-28T17:41:27.161Z,653.20
2022-08-28T17:43:53.708Z,655.53
2022-08-28T17:46:20.180Z,643.47
2022-08-28T17:48:53.580Z,639.30
2022-08-28T17:51:40.368Z,641.33
2022-08-28T17:54:09.162Z,636.37
2022-08-28T17:56:36.167Z,641.20
2022-08-28T17:59:02.795Z,649.93
2022-08-28T18:01:29.284Z,641.50
2022-08-28T18:03:55.755Z,640.63
2022-08-28T18:06:22.193Z,641.20
2022-08-28T18:08:48.688Z,643.27
2022-08-28T18:11:15.143Z,636.53
2022-08-28T18:13:41.631Z,641.73
2022-08-28T18:16:08.117Z,657.90
2022-08-28T18:18:36.594Z,645.17
2022-08-28T18:21:03.183Z,640.00
2022-08-28T18:23:29.674Z,646.53
2022-08-28T18:25:56.100Z,646.03
2022-08-28T18:28:22.634Z,645.77
2022-08-28T18:30:49.103Z,647.47
2022-08-28T18:33:15.582Z,656.50
2022-08-28T18:35:45.135Z,650.20
2022-08-28T18:38:16.656Z,651.53
2022-08-28T18:40:43.126Z,640.17
2022-08-28T18:43:09.622Z,642.20
2022-08-28T18:45:36.102Z,640.73
2022-08-28T18:48:02.592Z,645.87
2022-08-28T18:50:29.171Z,650.37
2022-08-28T18:52:55.694Z,651.10
2022-08-28T18:55:22.204Z,641.40
2022-08-28T18:57:50.362Z,642.03
2022-08-28T19:00:23.967Z,651.87
2022-08-28T19:02:56.678Z,653.90
2022-08-28T19:05:25.760Z,647.80
2022-08-28T19:07:52.248Z,654.63
2022-08-28T19:10:32.922Z,648.57
2022-08-28T19:13:07.941Z,651.40
2022-08-28T19:15:34.549Z,636.73
2022-08-28T19:18:01.288Z,636.07
2022-08-28T19:20:27.767Z,642.93
2022-08-28T19:22:54.302Z,643.67
2022-08-28T19:25:27.978Z,645.50
2022-08-28T19:27:56.433Z,637.23
2022-08-28T19:30:26.052Z,639.47
2022-08-28T19:32:52.601Z,645.97
2022-08-28T19:35:20.120Z,638.47
2022-08-28T19:37:48.798Z,643.97
2022-08-28T19:40:17.877Z,646.40
2022-08-28T19:42:44.484Z,646.60
2022-08-28T19:45:11.032Z,651.30
2022-08-28T19:47:37.520Z,651.73
2022-08-28T19:50:04.069Z,644.97
2022-08-28T19:52:30.525Z,652.27
2022-08-28T19:54:57.289Z,641.27
2022-08-28T19:57:23.847Z,647.70
2022-08-28T19:59:50.416Z,651.80
2022-08-28T20:02:16.951Z,651.97
2022-08-28T20:04:43.457Z,646.67
2022-08-28T20:07:09.949Z,644.33
2022-08-28T20:09:36.423Z,636.27
2022-08-28T20:12:04.920Z,635.30
2022-08-28T20:14:31.425Z,652.93
2022-08-28T20:16:57.908Z,654.27
2022-08-28T20:19:24.394Z,651.90
2022-08-28T20:21:51.367Z,648.60
2022-08-28T20:24:17.898Z,637.50
2022-08-28T20:26:44.332Z,644.27
2022-08-28T20:29:10.841Z,646.33
2022-08-28T20:31:37.322Z,637.93
2022-08-28T20:34:03.842Z,630.20
2022-08-28T20:36:30.297Z,646.37
2022-08-28T20:38:56.839Z,637.03
2022-08-28T20:41:23.296Z,651.70
2022-08-28T20:43:49.802Z,647.00
2022-08-28T20:46:16.298Z,653.67
2022-08-28T20:48:42.801Z,647.60
2022-08-28T20:51:09.273Z,645.07
2022-08-28T20:53:37.244Z,644.77
2022-08-28T20:56:04.396Z,645.80
2022-08-28T20:58:30.863Z,645.33
2022-08-28T21:00:59.667Z,648.17
2022-08-28T21:03:27.228Z,640.20
2022-08-28T21:05:55.153Z,634.47
2022-08-28T21:08:21.628Z,646.50
2022-08-28T21:10:48.093Z,640.47
2022-08-28T21:13:14.560Z,642.30
2022-08-28T21:15:41.004Z,645.50
2022-08-28T21:18:07.486Z,648.30
2022-08-28T21:20:33.965Z,646.50
2022-08-28T21:23:00.437Z,648.20
2022-08-28T21:25:26.907Z,647.43
2022-08-28T21:27:53.354Z,642.83
2022-08-28T21:30:19.839Z,639.73
2022-08-28T21:32:46.301Z,642.10
2022-08-28T21:35:16.355Z,639.33
2022-08-28T21:37:42.963Z,637.63
2022-08-28T21:40:09.694Z,639.33
2022-08-28T21:42:36.168Z,643.97
2022-08-28T21:45:02.619Z,653.97
2022-08-28T21:47:29.067Z,640.33
2022-08-28T21:49:55.543Z,637.23
2022-08-28T21:52:22.006Z,647.43
2022-08-28T21:54:48.468Z,648.77
2022-08-28T21:57:14.925Z,642.20
2022-08-28T21:59:41.381Z,638.97
2022-08-28T22:02:07.944Z,640.50
2022-08-28T22:04:34.476Z,641.00
2022-08-28T22:07:00.965Z,641.53
2022-08-28T22:09:27.442Z,646.03
2022-08-28T22:11:53.878Z,644.43
2022-08-28T22:14:20.348Z,643.73
2022-08-28T22:16:46.870Z,642.23
2022-08-28T22:19:13.425Z,633.27
2022-08-28T22:21:39.884Z,643.43
2022-08-28T22:24:06.351Z,637.50
2022-08-28T22:26:32.783Z,649.53
2022-08-28T22:28:59.258Z,644.57
2022-08-28T22:31:25.772Z,646.90
2022-08-28T22:33:52.263Z,638.07
2022-08-28T22:36:18.735Z,647.33
2022-08-28T22:38:47.103Z,641.67
2022-08-28T22:41:19.729Z,645.43
2022-08-28T22:43:46.192Z,644.33
2022-08-28T22:46:12.732Z,644.00
2022-08-28T22:48:39.287Z,638.83
2022-08-28T22:51:05.781Z,645.00
2022-08-28T22:53:32.245Z,642.87
2022-08-28T22:55:58.730Z,648.03
2022-08-28T22:58:25.200Z,650.77
2022-08-28T23:00:51.659Z,638.03
2022-08-28T23:03:18.312Z,641.90
2022-08-28T23:05:47.446Z,636.73
2022-08-28T23:08:14.356Z,644.57
2022-08-28T23:10:58.158Z,644.70
2022-08-28T23:13:28.473Z,643.13
2022-08-28T23:15:55.281Z,638.77
2022-08-28T23:18:21.855Z,634.00
2022-08-28T23:20:50.589Z,644.13
2022-08-28T23:23:20.543Z,637.03
2022-08-28T23:25:48.287Z,633.23
2022-08-28T23:28:14.905Z,638.37
2022-08-28T23:30:49.956Z,628.63
2022-08-28T23:33:23.512Z,634.20
2022-08-28T23:35:50.986Z,632.97
2022-08-28T23:38:20.748Z,625.57
2022-08-28T23:40:47.503Z,625.10
2022-08-28T23:43:14.129Z,638.00
2022-08-28T23:45:42.039Z,634.67
2022-08-28T23:48:08.793Z,629.37
2022-08-28T23:50:35.497Z,636.13
2022-08-28T23:53:02.576Z,644.10
